sensor_id;sensor_type;location;lat;lon;timestamp;P1;durP1;ratioP1;P2;durP2;ratioP2
6791;SDS011;3433;48.730;9.108;2023-07-31T00:00:34;2.33;;;1.70;;
6791;SDS011;3433;48.730;9.108;2023-07-31T00:03:24;1.63;;;1.50;;
6791;SDS011;3433;48.730;9.108;2023-07-31T00:06:12;5.67;;;2.03;;
6791;SDS011;3433;48.730;9.108;2023-07-31T00:09:02;5.33;;;2.60;;
6791;SDS011;3433;48.730;9.108;2023-07-31T00:11:50;3.10;;;2.23;;
6791;SDS011;3433;48.730;9.108;2023-07-31T00:14:39;2.90;;;1.70;;
6791;SDS011;3433;48.730;9.108;2023-07-31T00:17:26;3.23;;;2.10;;
6791;SDS011;3433;48.730;9.108;2023-07-31T00:20:19;2.97;;;1.77;;
6791;SDS011;3433;48.730;9.108;2023-07-31T00:23:15;2.97;;;2.00;;
6791;SDS011;3433;48.730;9.108;2023-07-31T00:26:15;5.77;;;1.73;;
6791;SDS011;3433;48.730;9.108;2023-07-31T00:29:09;3.00;;;2.37;;
6791;SDS011;3433;48.730;9.108;2023-07-31T00:31:57;4.60;;;2.07;;
6791;SDS011;3433;48.730;9.108;2023-07-31T00:34:49;4.27;;;1.90;;
6791;SDS011;3433;48.730;9.108;2023-07-31T00:37:40;3.60;;;2.27;;
6791;SDS011;3433;48.730;9.108;2023-07-31T00:40:36;6.83;;;2.43;;
6791;SDS011;3433;48.730;9.108;2023-07-31T00:43:30;3.30;;;1.77;;
6791;SDS011;3433;48.730;9.108;2023-07-31T00:46:17;3.10;;;2.00;;
6791;SDS011;3433;48.730;9.108;2023-07-31T00:49:06;5.00;;;1.90;;
6791;SDS011;3433;48.730;9.108;2023-07-31T00:52:07;3.07;;;1.67;;
6791;SDS011;3433;48.730;9.108;2023-07-31T00:54:58;4.03;;;1.93;;
6791;SDS011;3433;48.730;9.108;2023-07-31T00:57:45;4.20;;;1.90;;
6791;SDS011;3433;48.730;9.108;2023-07-31T01:00:35;3.00;;;1.90;;
6791;SDS011;3433;48.730;9.108;2023-07-31T01:03:25;2.93;;;1.83;;
6791;SDS011;3433;48.730;9.108;2023-07-31T01:06:15;3.20;;;2.27;;
6791;SDS011;3433;48.730;9.108;2023-07-31T01:09:13;2.33;;;1.90;;
6791;SDS011;3433;48.730;9.108;2023-07-31T01:12:09;3.70;;;1.80;;
6791;SDS011;3433;48.730;9.108;2023-07-31T01:15:07;3.87;;;2.00;;
6791;SDS011;3433;48.730;9.108;2023-07-31T01:17:59;3.43;;;2.20;;
6791;SDS011;3433;48.730;9.108;2023-07-31T01:20:47;4.50;;;1.93;;
6791;SDS011;3433;48.730;9.108;2023-07-31T01:23:51;2.83;;;1.73;;
6791;SDS011;3433;48.730;9.108;2023-07-31T01:27:05;5.00;;;2.47;;
6791;SDS011;3433;48.730;9.108;2023-07-31T01:29:59;8.10;;;2.03;;
6791;SDS011;3433;48.730;9.108;2023-07-31T01:32:56;3.97;;;2.10;;
6791;SDS011;3433;48.730;9.108;2023-07-31T01:35:52;2.33;;;1.90;;
6791;SDS011;3433;48.730;9.108;2023-07-31T01:38:40;2.37;;;2.17;;
6791;SDS011;3433;48.730;9.108;2023-07-31T01:41:30;2.57;;;2.00;;
6791;SDS011;3433;48.730;9.108;2023-07-31T01:44:27;3.00;;;2.23;;
6791;SDS011;3433;48.730;9.108;2023-07-31T01:47:15;2.40;;;1.80;;
6791;SDS011;3433;48.730;9.108;2023-07-31T01:50:07;3.00;;;2.33;;
6791;SDS011;3433;48.730;9.108;2023-07-31T01:53:00;4.50;;;2.00;;
6791;SDS011;3433;48.730;9.108;2023-07-31T01:56:04;2.80;;;2.23;;
6791;SDS011;3433;48.730;9.108;2023-07-31T01:58:52;3.67;;;1.97;;
6791;SDS011;3433;48.730;9.108;2023-07-31T02:01:43;4.13;;;2.00;;
6791;SDS011;3433;48.730;9.108;2023-07-31T02:04:34;2.30;;;2.10;;
6791;SDS011;3433;48.730;9.108;2023-07-31T02:07:23;5.17;;;2.37;;
6791;SDS011;3433;48.730;9.108;2023-07-31T02:10:10;3.07;;;2.13;;
6791;SDS011;3433;48.730;9.108;2023-07-31T02:13:01;4.27;;;2.10;;
6791;SDS011;3433;48.730;9.108;2023-07-31T02:15:49;2.67;;;2.17;;
6791;SDS011;3433;48.730;9.108;2023-07-31T02:18:38;4.20;;;2.70;;
6791;SDS011;3433;48.730;9.108;2023-07-31T02:21:29;2.50;;;1.70;;
6791;SDS011;3433;48.730;9.108;2023-07-31T02:24:25;5.73;;;1.80;;
6791;SDS011;3433;48.730;9.108;2023-07-31T02:27:15;1.67;;;1.57;;
6791;SDS011;3433;48.730;9.108;2023-07-31T02:30:02;7.97;;;2.27;;
6791;SDS011;3433;48.730;9.108;2023-07-31T02:32:50;2.60;;;1.80;;
6791;SDS011;3433;48.730;9.108;2023-07-31T02:35:40;2.73;;;2.20;;
6791;SDS011;3433;48.730;9.108;2023-07-31T02:38:27;3.00;;;2.10;;
6791;SDS011;3433;48.730;9.108;2023-07-31T02:41:21;3.60;;;2.40;;
6791;SDS011;3433;48.730;9.108;2023-07-31T02:44:08;3.00;;;2.03;;
6791;SDS011;3433;48.730;9.108;2023-07-31T02:47:02;2.07;;;1.87;;
6791;SDS011;3433;48.730;9.108;2023-07-31T02:50:04;2.30;;;1.70;;
6791;SDS011;3433;48.730;9.108;2023-07-31T02:53:00;2.97;;;2.00;;
6791;SDS011;3433;48.730;9.108;2023-07-31T02:55:52;3.93;;;2.10;;
6791;SDS011;3433;48.730;9.108;2023-07-31T02:58:39;4.17;;;2.60;;
6791;SDS011;3433;48.730;9.108;2023-07-31T03:01:27;4.97;;;2.33;;
6791;SDS011;3433;48.730;9.108;2023-07-31T03:04:14;8.20;;;1.90;;
6791;SDS011;3433;48.730;9.108;2023-07-31T03:07:04;3.17;;;2.00;;
6791;SDS011;3433;48.730;9.108;2023-07-31T03:09:53;3.10;;;2.27;;
6791;SDS011;3433;48.730;9.108;2023-07-31T03:12:41;4.77;;;2.10;;
6791;SDS011;3433;48.730;9.108;2023-07-31T03:15:29;2.13;;;1.73;;
6791;SDS011;3433;48.730;9.108;2023-07-31T03:18:25;6.90;;;2.40;;
6791;SDS011;3433;48.730;9.108;2023-07-31T03:21:14;1.90;;;1.40;;
6791;SDS011;3433;48.730;9.108;2023-07-31T03:24:06;4.47;;;2.60;;
6791;SDS011;3433;48.730;9.108;2023-07-31T03:26:55;3.73;;;1.83;;
6791;SDS011;3433;48.730;9.108;2023-07-31T03:29:42;4.80;;;1.73;;
6791;SDS011;3433;48.730;9.108;2023-07-31T03:32:29;3.57;;;2.13;;
6791;SDS011;3433;48.730;9.108;2023-07-31T03:35:31;2.20;;;1.70;;
6791;SDS011;3433;48.730;9.108;2023-07-31T03:38:18;3.10;;;1.93;;
6791;SDS011;3433;48.730;9.108;2023-07-31T03:41:08;5.13;;;2.03;;
6791;SDS011;3433;48.730;9.108;2023-07-31T03:44:02;3.00;;;1.80;;
6791;SDS011;3433;48.730;9.108;2023-07-31T03:46:49;2.43;;;1.50;;
6791;SDS011;3433;48.730;9.108;2023-07-31T03:49:41;3.40;;;1.90;;
6791;SDS011;3433;48.730;9.108;2023-07-31T03:52:28;3.33;;;2.37;;
6791;SDS011;3433;48.730;9.108;2023-07-31T03:55:21;3.60;;;1.83;;
6791;SDS011;3433;48.730;9.108;2023-07-31T03:58:15;5.80;;;2.33;;
6791;SDS011;3433;48.730;9.108;2023-07-31T04:01:04;4.27;;;1.97;;
6791;SDS011;3433;48.730;9.108;2023-07-31T04:03:51;2.30;;;1.93;;
6791;SDS011;3433;48.730;9.108;2023-07-31T04:06:45;2.20;;;2.00;;
6791;SDS011;3433;48.730;9.108;2023-07-31T04:09:32;5.00;;;2.13;;
6791;SDS011;3433;48.730;9.108;2023-07-31T04:12:24;4.73;;;1.67;;
6791;SDS011;3433;48.730;9.108;2023-07-31T04:15:15;5.17;;;2.00;;
6791;SDS011;3433;48.730;9.108;2023-07-31T04:18:04;2.60;;;1.57;;
6791;SDS011;3433;48.730;9.108;2023-07-31T04:20:53;4.60;;;2.33;;
6791;SDS011;3433;48.730;9.108;2023-07-31T04:23:41;3.60;;;2.00;;
6791;SDS011;3433;48.730;9.108;2023-07-31T04:26:31;2.43;;;1.80;;
6791;SDS011;3433;48.730;9.108;2023-07-31T04:29:23;3.20;;;1.87;;
6791;SDS011;3433;48.730;9.108;2023-07-31T04:32:16;4.00;;;2.10;;
6791;SDS011;3433;48.730;9.108;2023-07-31T04:35:06;4.13;;;2.20;;
6791;SDS011;3433;48.730;9.108;2023-07-31T04:37:59;6.17;;;2.13;;
6791;SDS011;3433;48.730;9.108;2023-07-31T04:40:49;2.30;;;1.90;;
6791;SDS011;3433;48.730;9.108;2023-07-31T04:43:37;3.03;;;1.60;;
6791;SDS011;3433;48.730;9.108;2023-07-31T04:46:26;3.13;;;1.80;;
6791;SDS011;3433;48.730;9.108;2023-07-31T04:49:14;3.20;;;2.50;;
6791;SDS011;3433;48.730;9.108;2023-07-31T04:52:04;1.87;;;1.70;;
6791;SDS011;3433;48.730;9.108;2023-07-31T04:54:52;3.13;;;2.00;;
6791;SDS011;3433;48.730;9.108;2023-07-31T04:57:40;2.50;;;1.70;;
6791;SDS011;3433;48.730;9.108;2023-07-31T05:00:27;5.13;;;2.77;;
6791;SDS011;3433;48.730;9.108;2023-07-31T05:03:25;2.83;;;1.83;;
6791;SDS011;3433;48.730;9.108;2023-07-31T05:06:22;3.43;;;2.40;;
6791;SDS011;3433;48.730;9.108;2023-07-31T05:09:14;2.17;;;1.97;;
6791;SDS011;3433;48.730;9.108;2023-07-31T05:12:04;2.80;;;2.17;;
6791;SDS011;3433;48.730;9.108;2023-07-31T05:14:52;3.23;;;2.00;;
6791;SDS011;3433;48.730;9.108;2023-07-31T05:17:49;2.50;;;1.70;;
6791;SDS011;3433;48.730;9.108;2023-07-31T05:20:39;6.60;;;2.20;;
6791;SDS011;3433;48.730;9.108;2023-07-31T05:23:35;10.20;;;2.10;;
6791;SDS011;3433;48.730;9.108;2023-07-31T05:26:28;2.57;;;1.97;;
6791;SDS011;3433;48.730;9.108;2023-07-31T05:29:16;3.90;;;2.50;;
6791;SDS011;3433;48.730;9.108;2023-07-31T05:32:06;3.00;;;2.03;;
6791;SDS011;3433;48.730;9.108;2023-07-31T05:34:54;3.30;;;2.27;;
6791;SDS011;3433;48.730;9.108;2023-07-31T05:37:49;3.40;;;1.90;;
6791;SDS011;3433;48.730;9.108;2023-07-31T05:40:37;2.30;;;1.87;;
6791;SDS011;3433;48.730;9.108;2023-07-31T05:43:41;2.33;;;1.97;;
6791;SDS011;3433;48.730;9.108;2023-07-31T05:46:29;3.43;;;2.07;;
6791;SDS011;3433;48.730;9.108;2023-07-31T05:49:17;4.03;;;2.73;;
6791;SDS011;3433;48.730;9.108;2023-07-31T05:52:05;5.03;;;1.97;;
6791;SDS011;3433;48.730;9.108;2023-07-31T05:54:58;2.93;;;2.00;;
6791;SDS011;3433;48.730;9.108;2023-07-31T05:57:48;5.77;;;2.00;;
6791;SDS011;3433;48.730;9.108;2023-07-31T06:00:45;2.27;;;2.00;;
6791;SDS011;3433;48.730;9.108;2023-07-31T06:03:35;2.90;;;2.13;;
6791;SDS011;3433;48.730;9.108;2023-07-31T06:06:22;3.43;;;1.73;;
6791;SDS011;3433;48.730;9.108;2023-07-31T06:09:10;5.60;;;3.00;;
6791;SDS011;3433;48.730;9.108;2023-07-31T06:12:00;3.57;;;2.00;;
6791;SDS011;3433;48.730;9.108;2023-07-31T06:14:52;3.47;;;2.13;;
6791;SDS011;3433;48.730;9.108;2023-07-31T06:17:48;7.83;;;2.10;;
6791;SDS011;3433;48.730;9.108;2023-07-31T06:20:38;2.90;;;1.60;;
6791;SDS011;3433;48.730;9.108;2023-07-31T06:23:29;2.93;;;1.90;;
6791;SDS011;3433;48.730;9.108;2023-07-31T06:26:18;4.60;;;2.03;;
6791;SDS011;3433;48.730;9.108;2023-07-31T06:29:07;2.43;;;1.90;;
6791;SDS011;3433;48.730;9.108;2023-07-31T06:31:57;4.07;;;2.50;;
6791;SDS011;3433;48.730;9.108;2023-07-31T06:38:01;2.70;;;2.10;;
6791;SDS011;3433;48.730;9.108;2023-07-31T06:40:51;3.30;;;2.20;;
6791;SDS011;3433;48.730;9.108;2023-07-31T06:43:45;4.30;;;1.97;;
6791;SDS011;3433;48.730;9.108;2023-07-31T06:46:36;3.63;;;1.80;;
6791;SDS011;3433;48.730;9.108;2023-07-31T06:49:25;2.00;;;1.80;;
6791;SDS011;3433;48.730;9.108;2023-07-31T06:52:18;4.03;;;2.27;;
6791;SDS011;3433;48.730;9.108;2023-07-31T06:55:31;2.60;;;2.03;;
6791;SDS011;3433;48.730;9.108;2023-07-31T06:58:22;3.50;;;1.90;;
6791;SDS011;3433;48.730;9.108;2023-07-31T07:01:23;6.00;;;2.50;;
6791;SDS011;3433;48.730;9.108;2023-07-31T07:04:13;7.40;;;2.67;;
6791;SDS011;3433;48.730;9.108;2023-07-31T07:07:04;3.73;;;2.37;;
6791;SDS011;3433;48.730;9.108;2023-07-31T07:09:53;2.83;;;2.00;;
6791;SDS011;3433;48.730;9.108;2023-07-31T07:12:41;2.83;;;2.27;;
6791;SDS011;3433;48.730;9.108;2023-07-31T07:15:28;4.30;;;1.90;;
6791;SDS011;3433;48.730;9.108;2023-07-31T07:18:19;2.90;;;2.00;;
6791;SDS011;3433;48.730;9.108;2023-07-31T07:21:07;3.93;;;2.00;;
6791;SDS011;3433;48.730;9.108;2023-07-31T07:24:18;4.43;;;2.10;;
6791;SDS011;3433;48.730;9.108;2023-07-31T07:27:24;4.53;;;2.10;;
6791;SDS011;3433;48.730;9.108;2023-07-31T07:30:14;5.63;;;1.83;;
6791;SDS011;3433;48.730;9.108;2023-07-31T07:33:01;3.37;;;1.90;;
6791;SDS011;3433;48.730;9.108;2023-07-31T07:35:52;3.47;;;1.90;;
6791;SDS011;3433;48.730;9.108;2023-07-31T07:38:42;2.70;;;2.20;;
6791;SDS011;3433;48.730;9.108;2023-07-31T07:41:34;5.37;;;2.20;;
6791;SDS011;3433;48.730;9.108;2023-07-31T07:44:26;4.70;;;2.83;;
6791;SDS011;3433;48.730;9.108;2023-07-31T07:47:17;3.50;;;2.10;;
6791;SDS011;3433;48.730;9.108;2023-07-31T07:50:05;4.23;;;2.30;;
6791;SDS011;3433;48.730;9.108;2023-07-31T07:53:03;3.60;;;1.97;;
6791;SDS011;3433;48.730;9.108;2023-07-31T07:55:56;4.37;;;2.50;;
6791;SDS011;3433;48.730;9.108;2023-07-31T07:58:51;3.90;;;2.00;;
6791;SDS011;3433;48.730;9.108;2023-07-31T08:01:44;3.80;;;2.33;;
6791;SDS011;3433;48.730;9.108;2023-07-31T08:05:04;2.87;;;2.20;;
6791;SDS011;3433;48.730;9.108;2023-07-31T08:08:01;5.83;;;2.97;;
6791;SDS011;3433;48.730;9.108;2023-07-31T08:11:04;5.13;;;2.27;;
6791;SDS011;3433;48.730;9.108;2023-07-31T08:14:10;7.80;;;2.47;;
6791;SDS011;3433;48.730;9.108;2023-07-31T08:17:29;4.33;;;2.40;;
6791;SDS011;3433;48.730;9.108;2023-07-31T08:20:38;6.80;;;2.77;;
6791;SDS011;3433;48.730;9.108;2023-07-31T08:23:26;2.70;;;2.07;;
6791;SDS011;3433;48.730;9.108;2023-07-31T08:26:22;2.63;;;1.93;;
6791;SDS011;3433;48.730;9.108;2023-07-31T08:29:15;6.17;;;2.27;;
6791;SDS011;3433;48.730;9.108;2023-07-31T08:32:03;2.30;;;2.10;;
6791;SDS011;3433;48.730;9.108;2023-07-31T08:35:00;3.60;;;2.23;;
6791;SDS011;3433;48.730;9.108;2023-07-31T08:37:58;7.13;;;2.50;;
6791;SDS011;3433;48.730;9.108;2023-07-31T08:40:54;5.83;;;2.10;;
6791;SDS011;3433;48.730;9.108;2023-07-31T08:43:45;3.70;;;2.20;;
6791;SDS011;3433;48.730;9.108;2023-07-31T08:46:33;2.73;;;1.90;;
6791;SDS011;3433;48.730;9.108;2023-07-31T08:49:21;3.67;;;2.50;;
6791;SDS011;3433;48.730;9.108;2023-07-31T08:52:11;3.37;;;2.37;;
6791;SDS011;3433;48.730;9.108;2023-07-31T08:54:58;3.50;;;2.10;;
6791;SDS011;3433;48.730;9.108;2023-07-31T08:57:45;3.30;;;2.50;;
6791;SDS011;3433;48.730;9.108;2023-07-31T09:00:33;11.73;;;2.37;;
6791;SDS011;3433;48.730;9.108;2023-07-31T09:03:25;3.80;;;2.10;;
6791;SDS011;3433;48.730;9.108;2023-07-31T09:06:12;11.17;;;2.87;;
6791;SDS011;3433;48.730;9.108;2023-07-31T09:09:03;8.17;;;2.00;;
6791;SDS011;3433;48.730;9.108;2023-07-31T09:11:50;3.90;;;2.63;;
6791;SDS011;3433;48.730;9.108;2023-07-31T09:14:38;2.47;;;2.27;;
6791;SDS011;3433;48.730;9.108;2023-07-31T09:17:30;4.20;;;2.10;;
6791;SDS011;3433;48.730;9.108;2023-07-31T09:20:21;7.33;;;2.50;;
6791;SDS011;3433;48.730;9.108;2023-07-31T09:23:10;6.17;;;2.40;;
6791;SDS011;3433;48.730;9.108;2023-07-31T09:25:59;3.37;;;2.33;;
6791;SDS011;3433;48.730;9.108;2023-07-31T09:28:46;4.73;;;2.33;;
6791;SDS011;3433;48.730;9.108;2023-07-31T09:31:42;4.87;;;2.20;;
6791;SDS011;3433;48.730;9.108;2023-07-31T09:34:36;4.00;;;2.67;;
6791;SDS011;3433;48.730;9.108;2023-07-31T09:37:30;4.67;;;2.43;;
6791;SDS011;3433;48.730;9.108;2023-07-31T09:40:25;5.97;;;3.03;;
6791;SDS011;3433;48.730;9.108;2023-07-31T09:46:42;3.90;;;2.63;;
6791;SDS011;3433;48.730;9.108;2023-07-31T09:49:32;3.97;;;2.30;;
6791;SDS011;3433;48.730;9.108;2023-07-31T09:52:24;5.63;;;3.03;;
6791;SDS011;3433;48.730;9.108;2023-07-31T09:55:17;5.77;;;2.33;;
6791;SDS011;3433;48.730;9.108;2023-07-31T09:58:06;3.03;;;2.20;;
6791;SDS011;3433;48.730;9.108;2023-07-31T10:01:05;3.43;;;1.90;;
6791;SDS011;3433;48.730;9.108;2023-07-31T10:03:59;4.17;;;2.43;;
6791;SDS011;3433;48.730;9.108;2023-07-31T10:06:51;3.50;;;2.73;;
6791;SDS011;3433;48.730;9.108;2023-07-31T10:10:07;5.70;;;2.40;;
6791;SDS011;3433;48.730;9.108;2023-07-31T10:12:59;3.93;;;2.43;;
6791;SDS011;3433;48.730;9.108;2023-07-31T10:15:50;4.07;;;2.13;;
6791;SDS011;3433;48.730;9.108;2023-07-31T10:18:48;9.03;;;2.93;;
6791;SDS011;3433;48.730;9.108;2023-07-31T10:21:40;6.20;;;2.67;;
6791;SDS011;3433;48.730;9.108;2023-07-31T10:25:18;12.40;;;3.60;;
6791;SDS011;3433;48.730;9.108;2023-07-31T10:28:17;6.60;;;2.50;;
6791;SDS011;3433;48.730;9.108;2023-07-31T10:31:24;5.07;;;1.93;;
6791;SDS011;3433;48.730;9.108;2023-07-31T10:38:17;5.10;;;3.03;;
6791;SDS011;3433;48.730;9.108;2023-07-31T10:45:33;11.00;;;2.67;;
6791;SDS011;3433;48.730;9.108;2023-07-31T10:58:36;4.10;;;2.30;;
6791;SDS011;3433;48.730;9.108;2023-07-31T11:01:58;3.30;;;2.60;;
6791;SDS011;3433;48.730;9.108;2023-07-31T11:08:40;3.07;;;2.63;;
6791;SDS011;3433;48.730;9.108;2023-07-31T11:11:45;7.40;;;3.40;;
6791;SDS011;3433;48.730;9.108;2023-07-31T11:14:46;5.37;;;3.20;;
6791;SDS011;3433;48.730;9.108;2023-07-31T11:31:28;4.57;;;2.27;;
6791;SDS011;3433;48.730;9.108;2023-07-31T11:38:25;5.97;;;2.67;;
6791;SDS011;3433;48.730;9.108;2023-07-31T11:41:43;3.53;;;2.10;;
6791;SDS011;3433;48.730;9.108;2023-07-31T11:48:34;5.57;;;2.50;;
6791;SDS011;3433;48.730;9.108;2023-07-31T11:52:05;5.63;;;3.00;;
6791;SDS011;3433;48.730;9.108;2023-07-31T11:55:10;5.00;;;2.53;;
6791;SDS011;3433;48.730;9.108;2023-07-31T11:58:17;4.70;;;2.80;;
6791;SDS011;3433;48.730;9.108;2023-07-31T12:01:42;3.43;;;2.23;;
6791;SDS011;3433;48.730;9.108;2023-07-31T12:11:20;3.20;;;2.90;;
6791;SDS011;3433;48.730;9.108;2023-07-31T12:18:08;3.10;;;2.27;;
6791;SDS011;3433;48.730;9.108;2023-07-31T12:21:54;4.10;;;3.23;;
6791;SDS011;3433;48.730;9.108;2023-07-31T12:24:59;3.60;;;2.60;;
6791;SDS011;3433;48.730;9.108;2023-07-31T12:28:07;5.43;;;3.03;;
6791;SDS011;3433;48.730;9.108;2023-07-31T12:31:05;5.37;;;3.43;;
6791;SDS011;3433;48.730;9.108;2023-07-31T12:41:45;6.40;;;3.30;;
6791;SDS011;3433;48.730;9.108;2023-07-31T12:44:49;9.60;;;3.90;;
6791;SDS011;3433;48.730;9.108;2023-07-31T12:48:04;6.00;;;3.03;;
6791;SDS011;3433;48.730;9.108;2023-07-31T12:54:53;13.10;;;2.90;;
6791;SDS011;3433;48.730;9.108;2023-07-31T12:58:15;5.37;;;2.73;;
6791;SDS011;3433;48.730;9.108;2023-07-31T13:01:35;4.30;;;2.40;;
6791;SDS011;3433;48.730;9.108;2023-07-31T13:04:49;5.23;;;2.70;;
6791;SDS011;3433;48.730;9.108;2023-07-31T13:11:32;4.23;;;3.30;;
6791;SDS011;3433;48.730;9.108;2023-07-31T13:14:35;7.40;;;2.80;;
6791;SDS011;3433;48.730;9.108;2023-07-31T13:17:25;7.83;;;3.70;;
6791;SDS011;3433;48.730;9.108;2023-07-31T13:20:21;7.13;;;3.10;;
6791;SDS011;3433;48.730;9.108;2023-07-31T13:23:45;7.40;;;3.43;;
6791;SDS011;3433;48.730;9.108;2023-07-31T13:26:59;4.43;;;3.10;;
6791;SDS011;3433;48.730;9.108;2023-07-31T13:30:10;4.77;;;2.90;;
6791;SDS011;3433;48.730;9.108;2023-07-31T13:33:26;5.63;;;3.20;;
6791;SDS011;3433;48.730;9.108;2023-07-31T13:36:21;5.47;;;3.57;;
6791;SDS011;3433;48.730;9.108;2023-07-31T13:39:46;6.10;;;2.87;;
6791;SDS011;3433;48.730;9.108;2023-07-31T13:42:59;3.50;;;2.97;;
6791;SDS011;3433;48.730;9.108;2023-07-31T13:50:06;4.47;;;3.00;;
6791;SDS011;3433;48.730;9.108;2023-07-31T13:53:01;3.43;;;2.60;;
6791;SDS011;3433;48.730;9.108;2023-07-31T13:56:20;3.90;;;3.10;;
6791;SDS011;3433;48.730;9.108;2023-07-31T13:59:32;4.00;;;2.97;;
6791;SDS011;3433;48.730;9.108;2023-07-31T14:02:38;3.50;;;2.70;;
6791;SDS011;3433;48.730;9.108;2023-07-31T14:05:51;3.37;;;2.67;;
6791;SDS011;3433;48.730;9.108;2023-07-31T14:09:16;3.30;;;2.70;;
6791;SDS011;3433;48.730;9.108;2023-07-31T14:12:17;6.80;;;3.20;;
6791;SDS011;3433;48.730;9.108;2023-07-31T14:15:16;4.30;;;2.80;;
6791;SDS011;3433;48.730;9.108;2023-07-31T14:18:36;6.10;;;2.90;;
6791;SDS011;3433;48.730;9.108;2023-07-31T14:21:40;4.13;;;2.60;;
6791;SDS011;3433;48.730;9.108;2023-07-31T14:24:36;6.17;;;2.90;;
6791;SDS011;3433;48.730;9.108;2023-07-31T14:28:14;5.57;;;3.07;;
6791;SDS011;3433;48.730;9.108;2023-07-31T14:31:13;5.40;;;2.70;;
6791;SDS011;3433;48.730;9.108;2023-07-31T14:35:13;6.10;;;2.93;;
6791;SDS011;3433;48.730;9.108;2023-07-31T14:37:35;5.30;;;2.77;;
6791;SDS011;3433;48.730;9.108;2023-07-31T14:40:24;4.93;;;2.57;;
6791;SDS011;3433;48.730;9.108;2023-07-31T14:43:14;3.53;;;2.77;;
6791;SDS011;3433;48.730;9.108;2023-07-31T14:46:13;6.10;;;3.20;;
6791;SDS011;3433;48.730;9.108;2023-07-31T14:49:33;6.33;;;2.90;;
6791;SDS011;3433;48.730;9.108;2023-07-31T14:52:23;5.10;;;2.70;;
6791;SDS011;3433;48.730;9.108;2023-07-31T15:40:22;4.73;;;3.13;;
6791;SDS011;3433;48.730;9.108;2023-07-31T15:43:30;4.13;;;2.40;;
6791;SDS011;3433;48.730;9.108;2023-07-31T15:46:26;5.83;;;2.53;;
6791;SDS011;3433;48.730;9.108;2023-07-31T15:49:28;3.00;;;2.20;;
6791;SDS011;3433;48.730;9.108;2023-07-31T15:52:26;3.23;;;2.60;;
6791;SDS011;3433;48.730;9.108;2023-07-31T15:55:44;2.90;;;2.57;;
6791;SDS011;3433;48.730;9.108;2023-07-31T15:58:56;4.50;;;2.87;;
6791;SDS011;3433;48.730;9.108;2023-07-31T16:02:22;6.80;;;2.83;;
6791;SDS011;3433;48.730;9.108;2023-07-31T16:30:15;3.60;;;2.60;;
6791;SDS011;3433;48.730;9.108;2023-07-31T16:33:41;4.40;;;2.67;;
6791;SDS011;3433;48.730;9.108;2023-07-31T16:40:23;3.77;;;2.87;;
6791;SDS011;3433;48.730;9.108;2023-07-31T16:43:29;7.70;;;2.93;;
6791;SDS011;3433;48.730;9.108;2023-07-31T16:46:21;3.43;;;2.47;;
6791;SDS011;3433;48.730;9.108;2023-07-31T16:49:08;4.43;;;2.87;;
6791;SDS011;3433;48.730;9.108;2023-07-31T16:51:56;4.30;;;2.47;;
6791;SDS011;3433;48.730;9.108;2023-07-31T16:54:43;4.60;;;2.90;;
6791;SDS011;3433;48.730;9.108;2023-07-31T16:57:31;6.37;;;3.30;;
6791;SDS011;3433;48.730;9.108;2023-07-31T17:00:19;4.20;;;2.70;;
6791;SDS011;3433;48.730;9.108;2023-07-31T17:03:06;5.40;;;2.57;;
6791;SDS011;3433;48.730;9.108;2023-07-31T17:05:54;5.83;;;2.60;;
6791;SDS011;3433;48.730;9.108;2023-07-31T17:08:43;4.20;;;2.70;;
6791;SDS011;3433;48.730;9.108;2023-07-31T17:11:31;6.50;;;2.70;;
6791;SDS011;3433;48.730;9.108;2023-07-31T17:14:20;4.60;;;2.67;;
6791;SDS011;3433;48.730;9.108;2023-07-31T17:20:41;6.30;;;2.80;;
6791;SDS011;3433;48.730;9.108;2023-07-31T17:23:52;4.07;;;2.80;;
6791;SDS011;3433;48.730;9.108;2023-07-31T17:30:13;4.77;;;2.80;;
6791;SDS011;3433;48.730;9.108;2023-07-31T17:33:49;7.27;;;3.07;;
6791;SDS011;3433;48.730;9.108;2023-07-31T17:44:20;4.17;;;2.80;;
6791;SDS011;3433;48.730;9.108;2023-07-31T17:47:20;6.80;;;3.37;;
6791;SDS011;3433;48.730;9.108;2023-07-31T17:50:32;5.50;;;2.90;;
6791;SDS011;3433;48.730;9.108;2023-07-31T17:53:29;4.20;;;2.90;;
6791;SDS011;3433;48.730;9.108;2023-07-31T17:56:34;5.73;;;2.90;;
6791;SDS011;3433;48.730;9.108;2023-07-31T17:59:28;4.00;;;2.80;;
6791;SDS011;3433;48.730;9.108;2023-07-31T18:02:22;6.77;;;3.20;;
6791;SDS011;3433;48.730;9.108;2023-07-31T18:05:58;2.90;;;2.60;;
6791;SDS011;3433;48.730;9.108;2023-07-31T18:09:27;3.93;;;2.77;;
6791;SDS011;3433;48.730;9.108;2023-07-31T18:21:27;3.53;;;2.80;;
6791;SDS011;3433;48.730;9.108;2023-07-31T18:24:17;3.80;;;2.87;;
6791;SDS011;3433;48.730;9.108;2023-07-31T18:27:04;6.07;;;3.27;;
6791;SDS011;3433;48.730;9.108;2023-07-31T18:29:52;3.00;;;2.60;;
6791;SDS011;3433;48.730;9.108;2023-07-31T18:32:39;4.17;;;3.00;;
6791;SDS011;3433;48.730;9.108;2023-07-31T18:35:28;5.33;;;2.80;;
6791;SDS011;3433;48.730;9.108;2023-07-31T18:38:15;6.60;;;3.40;;
6791;SDS011;3433;48.730;9.108;2023-07-31T18:41:04;5.67;;;2.80;;
6791;SDS011;3433;48.730;9.108;2023-07-31T18:43:52;4.53;;;2.90;;
6791;SDS011;3433;48.730;9.108;2023-07-31T18:46:40;10.03;;;2.40;;
6791;SDS011;3433;48.730;9.108;2023-07-31T18:49:27;5.03;;;3.33;;
6791;SDS011;3433;48.730;9.108;2023-07-31T18:52:15;3.30;;;2.93;;
6791;SDS011;3433;48.730;9.108;2023-07-31T18:55:03;5.73;;;3.10;;
6791;SDS011;3433;48.730;9.108;2023-07-31T18:57:52;6.83;;;4.00;;
6791;SDS011;3433;48.730;9.108;2023-07-31T19:00:39;6.57;;;3.20;;
6791;SDS011;3433;48.730;9.108;2023-07-31T19:03:26;3.60;;;2.93;;
6791;SDS011;3433;48.730;9.108;2023-07-31T19:06:13;5.40;;;3.07;;
6791;SDS011;3433;48.730;9.108;2023-07-31T19:09:02;6.13;;;3.50;;
6791;SDS011;3433;48.730;9.108;2023-07-31T19:11:50;5.43;;;3.07;;
6791;SDS011;3433;48.730;9.108;2023-07-31T19:14:37;5.43;;;3.20;;
6791;SDS011;3433;48.730;9.108;2023-07-31T19:17:24;6.17;;;2.83;;
6791;SDS011;3433;48.730;9.108;2023-07-31T19:20:12;5.63;;;3.40;;
6791;SDS011;3433;48.730;9.108;2023-07-31T19:34:34;7.13;;;3.67;;
6791;SDS011;3433;48.730;9.108;2023-07-31T19:39:46;4.30;;;3.60;;
6791;SDS011;3433;48.730;9.108;2023-07-31T20:04:03;4.80;;;3.50;;
6791;SDS011;3433;48.730;9.108;2023-07-31T20:11:00;6.20;;;3.83;;
6791;SDS011;3433;48.730;9.108;2023-07-31T20:28:07;6.33;;;3.27;;
6791;SDS011;3433;48.730;9.108;2023-07-31T20:31:03;5.00;;;3.30;;
6791;SDS011;3433;48.730;9.108;2023-07-31T20:33:54;5.17;;;3.13;;
6791;SDS011;3433;48.730;9.108;2023-07-31T20:40:40;5.70;;;3.53;;
6791;SDS011;3433;48.730;9.108;2023-07-31T20:55:12;4.33;;;3.60;;
6791;SDS011;3433;48.730;9.108;2023-07-31T21:06:03;9.00;;;3.73;;
6791;SDS011;3433;48.730;9.108;2023-07-31T21:09:13;6.40;;;3.67;;
6791;SDS011;3433;48.730;9.108;2023-07-31T21:15:10;7.50;;;3.50;;
6791;SDS011;3433;48.730;9.108;2023-07-31T21:18:19;5.23;;;3.10;;
6791;SDS011;3433;48.730;9.108;2023-07-31T21:31:58;5.20;;;3.33;;
6791;SDS011;3433;48.730;9.108;2023-07-31T21:46:15;5.10;;;3.63;;
6791;SDS011;3433;48.730;9.108;2023-07-31T22:07:16;4.10;;;3.43;;
6791;SDS011;3433;48.730;9.108;2023-07-31T22:13:48;6.87;;;3.77;;
6791;SDS011;3433;48.730;9.108;2023-07-31T22:16:36;5.43;;;3.30;;
6791;SDS011;3433;48.730;9.108;2023-07-31T22:19:30;4.50;;;3.33;;
6791;SDS011;3433;48.730;9.108;2023-07-31T22:22:20;6.90;;;3.47;;
6791;SDS011;3433;48.730;9.108;2023-07-31T22:25:10;7.37;;;3.40;;
6791;SDS011;3433;48.730;9.108;2023-07-31T22:28:02;4.37;;;3.60;;
6791;SDS011;3433;48.730;9.108;2023-07-31T22:30:55;4.57;;;3.40;;
6791;SDS011;3433;48.730;9.108;2023-07-31T22:33:50;7.73;;;4.20;;
6791;SDS011;3433;48.730;9.108;2023-07-31T22:36:58;5.67;;;3.37;;
6791;SDS011;3433;48.730;9.108;2023-07-31T22:39:54;3.93;;;3.20;;
6791;SDS011;3433;48.730;9.108;2023-07-31T22:42:49;6.03;;;3.33;;
6791;SDS011;3433;48.730;9.108;2023-07-31T22:45:36;5.57;;;2.87;;
6791;SDS011;3433;48.730;9.108;2023-07-31T22:48:27;5.70;;;3.00;;
6791;SDS011;3433;48.730;9.108;2023-07-31T22:51:15;5.83;;;3.57;;
6791;SDS011;3433;48.730;9.108;2023-07-31T22:54:10;7.00;;;3.37;;
6791;SDS011;3433;48.730;9.108;2023-07-31T22:57:01;4.70;;;3.33;;
6791;SDS011;3433;48.730;9.108;2023-07-31T22:59:54;4.43;;;3.10;;
6791;SDS011;3433;48.730;9.108;2023-07-31T23:02:47;7.50;;;3.23;;
6791;SDS011;3433;48.730;9.108;2023-07-31T23:05:35;5.10;;;3.47;;
6791;SDS011;3433;48.730;9.108;2023-07-31T23:08:30;5.50;;;3.50;;
6791;SDS011;3433;48.730;9.108;2023-07-31T23:11:17;5.30;;;3.33;;